Main page
METAR-TAF:

METAR-TAF

Airports :

Plovdiv, Bulgaria

Plovdiv Airport

latitude: 42-08N, longitude: 024-45E, elevation: 179 m

Current weather observation

The report was made 33 minutes ago, at 13:30 UTC
Wind 2 kt from variable directions
Temperature 26°C
Humidity 28%
Pressure 1014 hPa
Visibility 10 km or more

METAR: LBPD 211330Z AUTO VRB02KT 9999 NCD 26/06 Q1014 NOSIG

Time: 17:03 (14:03 UTC)

Forecast

The report was made 3 hours and 3 minutes ago, at 11:00 UTC
Forecast valid from 21 at 12 UTC to 22 at 12 UTC
Wind 8 kt from the West
Visibility 10 km or more
no clouds below 1500 m and no cumulonimbus

TAF: LBPD 211100Z 2112/2212 27008KT CAVOK

Weather observations and forecasts of more than 4000 airports (METAR and TAF reports).

The available stations are represented by yellow and red dots on the map.

Hover mouse over dot to see the name of the station.

Then click to see weather observations and forecasts.

To change the map : click on the green buttons with a black cross to zoom in, on the green button with a dash to zoom out, or on the green arrows for adjacent maps.


METAR-TAF: